Time;durP1;ratioP1;P1;durP2;ratioP2;P2;SDS_P1;SDS_P2;PMS_P1;PMS_P2;Temp;Humidity;BMP_temperature;BMP_pressure;BME280_temperature;BME280_humidity;BME280_pressure;Samples;Min_cycle;Max_cycle;Signal;HPM_P1;HPM_P2
2021/12/29 00:00:58;;;;;;;;;;;9.60;17.20;;;;;;5036749;28;19963;-81
2021/12/29 00:03:23;;;;;;;;;;;9.60;18.10;;;;;;5052449;28;19913;-80
2021/12/29 00:05:49;;;;;;;;;;;9.60;19.20;;;;;;5052047;28;19913;-81
2021/12/29 00:08:14;;;;;;;;;;;9.50;20.60;;;;;;5035992;28;19924;-81
2021/12/29 00:10:40;;;;;;;;;;;9.50;21.70;;;;;;5029651;28;19917;-80
2021/12/29 00:13:06;;;;;;;;;;;9.50;22.00;;;;;;5041905;28;19917;-80
2021/12/29 00:15:32;;;;;;;;;;;9.50;21.10;;;;;;5042609;28;19909;-80
2021/12/29 00:17:58;;;;;;;;;;;9.50;20.20;;;;;;5033899;28;19919;-81
2021/12/29 00:20:29;;;;;;;;;;;9.50;19.00;;;;;;5039361;28;19913;-81
2021/12/29 00:22:55;;;;;;;;;;;9.50;18.10;;;;;;5037051;28;19924;-81
2021/12/29 00:25:20;;;;;;;;;;;9.50;17.70;;;;;;5035789;28;19923;-80
2021/12/29 00:27:46;;;;;;;;;;;9.50;17.70;;;;;;5033542;28;19917;-81
2021/12/29 00:30:12;;;;;;;;;;;9.50;17.60;;;;;;5041379;28;19913;-81
2021/12/29 00:32:37;;;;;;;;;;;9.50;17.60;;;;;;5033592;28;19917;-81
2021/12/29 00:35:04;;;;;;;;;;;9.50;17.80;;;;;;5033858;28;19920;-80
2021/12/29 00:37:29;;;;;;;;;;;9.50;17.70;;;;;;5037481;28;19913;-80
2021/12/29 00:39:55;;;;;;;;;;;9.50;18.20;;;;;;5040515;28;19920;-81
2021/12/29 00:42:20;;;;;;;;;;;9.50;17.70;;;;;;5041692;28;19917;-81
2021/12/29 00:44:46;;;;;;;;;;;9.40;17.80;;;;;;5033713;28;20308;-80
2021/12/29 00:47:12;;;;;;;;;;;9.50;16.90;;;;;;5040813;28;19921;-81
2021/12/29 00:49:38;;;;;;;;;;;9.50;17.00;;;;;;5043075;28;19917;-81
2021/12/29 00:52:07;;;;;;;;;;;9.50;17.80;;;;;;5039757;28;19921;-80
2021/12/29 00:54:34;;;;;;;;;;;9.50;18.70;;;;;;5041422;28;19919;-80
2021/12/29 00:57:00;;;;;;;;;;;9.40;19.60;;;;;;5043721;28;20297;-81
2021/12/29 00:59:26;;;;;;;;;;;9.40;21.20;;;;;;5037158;28;19920;-81
2021/12/29 01:01:52;;;;;;;;;;;9.40;21.80;;;;;;5033878;28;19968;-81
2021/12/29 01:04:18;;;;;;;;;;;9.50;21.20;;;;;;5039226;28;20297;-80
2021/12/29 01:06:44;;;;;;;;;;;9.50;21.80;;;;;;5041876;28;20523;-81
2021/12/29 01:09:09;;;;;;;;;;;9.50;22.30;;;;;;5038514;28;19920;-81
2021/12/29 01:11:35;;;;;;;;;;;9.40;23.80;;;;;;5043313;28;19928;-81
2021/12/29 01:14:00;;;;;;;;;;;9.40;24.00;;;;;;5037162;28;19921;-81
2021/12/29 01:18:57;;;;;;;;;;;9.50;23.50;;;;;;5046500;28;20004;-81
2021/12/29 01:21:22;;;;;;;;;;;9.50;23.50;;;;;;5045754;28;19956;-81
2021/12/29 01:23:48;;;;;;;;;;;9.50;24.20;;;;;;5045601;28;19924;-81
2021/12/29 01:26:13;;;;;;;;;;;9.40;23.30;;;;;;5040755;28;19920;-81
2021/12/29 01:28:39;;;;;;;;;;;9.40;22.60;;;;;;5034834;28;20285;-81
2021/12/29 01:31:04;;;;;;;;;;;9.40;23.30;;;;;;5046676;28;20003;-81
2021/12/29 01:33:30;;;;;;;;;;;9.40;21.10;;;;;;5040502;28;19928;-81
2021/12/29 01:35:55;;;;;;;;;;;9.40;20.70;;;;;;5043841;28;20015;-81
2021/12/29 01:38:21;;;;;;;;;;;9.40;20.00;;;;;;5044395;28;19913;-81
2021/12/29 01:40:49;;;;;;;;;;;9.40;19.60;;;;;;5046513;28;19959;-81
2021/12/29 01:43:15;;;;;;;;;;;9.40;18.70;;;;;;5035599;28;20301;-81
2021/12/29 01:45:40;;;;;;;;;;;9.50;18.70;;;;;;5042879;28;19921;-82
2021/12/29 01:48:06;;;;;;;;;;;9.40;18.30;;;;;;5043261;28;19963;-81
2021/12/29 01:50:32;;;;;;;;;;;9.40;18.80;;;;;;5049098;28;19920;-81
2021/12/29 01:53:02;;;;;;;;;;;9.40;18.70;;;;;;5047244;28;19917;-81
2021/12/29 01:55:30;;;;;;;;;;;9.40;18.10;;;;;;5050602;28;19913;-81
2021/12/29 01:57:57;;;;;;;;;;;9.40;17.10;;;;;;5039317;28;19913;-80
2021/12/29 02:00:24;;;;;;;;;;;9.40;16.50;;;;;;5050014;28;19920;-81
2021/12/29 02:02:49;;;;;;;;;;;9.40;16.40;;;;;;5031915;28;19913;-81
2021/12/29 02:05:16;;;;;;;;;;;9.40;14.80;;;;;;5045156;28;19994;-81
2021/12/29 02:07:42;;;;;;;;;;;9.40;15.40;;;;;;5040508;28;19912;-81
2021/12/29 02:10:08;;;;;;;;;;;9.40;15.50;;;;;;5046648;28;19913;-81
2021/12/29 02:12:34;;;;;;;;;;;9.40;14.10;;;;;;5035642;28;20455;-81
2021/12/29 02:14:59;;;;;;;;;;;9.40;13.40;;;;;;5046641;28;19913;-80
2021/12/29 02:17:25;;;;;;;;;;;9.40;12.30;;;;;;5037150;28;20396;-81
2021/12/29 02:19:52;;;;;;;;;;;9.50;10.90;;;;;;5046865;28;19912;-81
2021/12/29 02:22:42;;;;;;;;;;;9.40;9.60;;;;;;5037364;28;19913;-80
2021/12/29 02:27:42;;;;;;;;;;;9.40;6.10;;;;;;5042164;28;19920;-81
2021/12/29 02:30:08;;;;;;;;;;;9.50;6.10;;;;;;5034537;28;20338;-81
2021/12/29 02:32:33;;;;;;;;;;;9.50;6.80;;;;;;5047844;28;19916;-81
2021/12/29 02:34:59;;;;;;;;;;;9.40;5.90;;;;;;5037799;28;19913;-81
2021/12/29 02:37:24;;;;;;;;;;;9.40;7.30;;;;;;5044016;28;20453;-81
2021/12/29 02:39:51;;;;;;;;;;;9.40;8.60;;;;;;5037340;28;19917;-81
2021/12/29 02:42:19;;;;;;;;;;;9.40;8.70;;;;;;5042329;28;19913;-81
2021/12/29 02:44:46;;;;;;;;;;;9.40;8.40;;;;;;5048754;28;20582;-81
2021/12/29 02:47:11;;;;;;;;;;;9.40;8.10;;;;;;5042394;28;19935;-81
2021/12/29 02:49:37;;;;;;;;;;;9.30;7.50;;;;;;5050861;28;19908;-81
2021/12/29 02:52:03;;;;;;;;;;;9.40;6.60;;;;;;5045491;28;19913;-81
2021/12/29 02:54:28;;;;;;;;;;;9.40;5.80;;;;;;5047471;28;20296;-81
2021/12/29 02:56:54;;;;;;;;;;;9.30;5.90;;;;;;5043295;28;19913;-81
2021/12/29 02:59:21;;;;;;;;;;;9.30;6.50;;;;;;5049376;28;19913;-81
2021/12/29 03:01:47;;;;;;;;;;;9.30;6.80;;;;;;5046723;28;19923;-81
2021/12/29 03:04:12;;;;;;;;;;;9.30;7.80;;;;;;5045324;28;19913;-81
2021/12/29 03:06:38;;;;;;;;;;;9.40;7.60;;;;;;5036151;28;19919;-81
2021/12/29 03:09:05;;;;;;;;;;;9.40;6.90;;;;;;5049557;28;19913;-81
2021/12/29 03:11:31;;;;;;;;;;;9.30;6.20;;;;;;5037532;28;19917;-81
2021/12/29 03:13:56;;;;;;;;;;;9.30;6.50;;;;;;5047753;28;19923;-81
2021/12/29 03:16:22;;;;;;;;;;;9.30;6.50;;;;;;5048938;28;19913;-81
2021/12/29 03:18:48;;;;;;;;;;;9.30;6.10;;;;;;5042453;28;19917;-81
2021/12/29 03:21:13;;;;;;;;;;;9.30;4.30;;;;;;5036365;28;19974;-81
2021/12/29 03:23:39;;;;;;;;;;;9.30;4.90;;;;;;5041037;28;19920;-81
2021/12/29 03:26:06;;;;;;;;;;;9.30;3.90;;;;;;5035309;28;19913;-81
2021/12/29 03:28:32;;;;;;;;;;;9.30;3.30;;;;;;5045709;28;19915;-81
2021/12/29 03:30:58;;;;;;;;;;;9.30;2.40;;;;;;5045771;28;19936;-81
2021/12/29 03:33:25;;;;;;;;;;;9.30;2.30;;;;;;5039724;28;19962;-81
2021/12/29 03:35:52;;;;;;;;;;;9.30;2.70;;;;;;5035165;28;19921;-81
2021/12/29 03:38:24;;;;;;;;;;;9.30;2.80;;;;;;5044157;28;19912;-81
2021/12/29 03:40:50;;;;;;;;;;;9.30;1.70;;;;;;5037261;28;19914;-81
2021/12/29 03:43:16;;;;;;;;;;;9.30;1.10;;;;;;5044056;28;19913;-81
2021/12/29 03:45:44;;;;;;;;;;;9.30;1.00;;;;;;5043861;28;19912;-81
2021/12/29 03:48:10;;;;;;;;;;;9.30;1.00;;;;;;5047408;28;19917;-81
2021/12/29 03:50:37;;;;;;;;;;;9.30;1.00;;;;;;5037855;28;19913;-81
2021/12/29 03:53:03;;;;;;;;;;;9.30;1.00;;;;;;5024252;28;19925;-81
2021/12/29 03:55:29;;;;;;;;;;;9.30;1.00;;;;;;5043314;28;19970;-81
2021/12/29 03:57:54;;;;;;;;;;;9.30;1.00;;;;;;5038883;28;20439;-81
2021/12/29 04:00:21;;;;;;;;;;;9.30;1.00;;;;;;5037609;28;19931;-81
2021/12/29 04:02:47;;;;;;;;;;;9.30;1.00;;;;;;5035580;28;19913;-81
2021/12/29 04:05:14;;;;;;;;;;;9.20;1.00;;;;;;5039772;28;20015;-81
2021/12/29 04:07:40;;;;;;;;;;;9.20;1.00;;;;;;5039155;28;19921;-81
2021/12/29 04:10:06;;;;;;;;;;;9.20;1.00;;;;;;5036177;28;19917;-81
2021/12/29 04:12:32;;;;;;;;;;;9.20;1.00;;;;;;5046613;28;19917;-81
2021/12/29 04:14:57;;;;;;;;;;;9.20;1.30;;;;;;5043865;28;20460;-81
2021/12/29 04:17:29;;;;;;;;;;;9.20;2.40;;;;;;5041141;28;19920;-81
2021/12/29 04:22:38;;;;;;;;;;;9.20;1.00;;;;;;5044334;28;19919;-81
2021/12/29 04:25:04;;;;;;;;;;;9.20;1.00;;;;;;5039789;28;19913;-81
2021/12/29 04:27:30;;;;;;;;;;;9.10;1.00;;;;;;5043988;28;20029;-81
2021/12/29 04:29:55;;;;;;;;;;;9.10;1.00;;;;;;5041706;28;19999;-81
2021/12/29 04:32:21;;;;;;;;;;;9.10;1.00;;;;;;5045089;28;19924;-81
2021/12/29 04:34:46;;;;;;;;;;;9.10;1.90;;;;;;5092086;22;19931;-81
2021/12/29 04:37:12;;;;;;;;;;;9.10;2.00;;;;;;5082094;28;19920;-81
2021/12/29 04:39:37;;;;;;;;;;;9.10;2.80;;;;;;5063430;28;20262;-81
2021/12/29 04:42:03;;;;;;;;;;;9.10;2.20;;;;;;5079414;28;20376;-81
2021/12/29 04:44:28;;;;;;;;;;;9.10;1.90;;;;;;5078915;28;19912;-81
2021/12/29 04:46:55;;;;;;;;;;;9.10;3.30;;;;;;5076608;28;19957;-82
2021/12/29 04:49:26;;;;;;;;;;;9.10;4.70;;;;;;5066194;28;19920;-81
2021/12/29 04:52:02;;;;;;;;;;;9.10;5.30;;;;;;5076772;28;19917;-81
2021/12/29 04:54:28;;;;;;;;;;;9.10;5.00;;;;;;5075662;28;19921;-81
2021/12/29 04:56:55;;;;;;;;;;;9.10;5.30;;;;;;5077010;28;19959;-81
2021/12/29 04:59:20;;;;;;;;;;;9.10;5.20;;;;;;5072635;28;19920;-81
2021/12/29 05:01:47;;;;;;;;;;;9.10;5.80;;;;;;5079962;28;20335;-81
2021/12/29 05:04:20;;;;;;;;;;;9.10;5.30;;;;;;5065782;28;20293;-81
2021/12/29 05:09:29;;;;;;;;;;;9.10;1.00;;;;;;5069831;28;19935;-81
2021/12/29 05:11:55;;;;;;;;;;;9.20;1.00;;;;;;5072342;28;19912;-82
2021/12/29 05:14:20;;;;;;;;;;;9.20;1.30;;;;;;5072419;28;19916;-81
2021/12/29 05:16:45;;;;;;;;;;;9.20;1.90;;;;;;5074338;28;19920;-81
2021/12/29 05:19:11;;;;;;;;;;;9.10;1.10;;;;;;5073215;28;19912;-82
2021/12/29 05:21:36;;;;;;;;;;;9.20;1.00;;;;;;5087549;28;20034;-81
2021/12/29 05:24:02;;;;;;;;;;;9.20;1.00;;;;;;5076095;28;19912;-80
2021/12/29 05:26:27;;;;;;;;;;;9.20;1.00;;;;;;5093282;28;20003;-81
2021/12/29 05:28:53;;;;;;;;;;;9.20;1.00;;;;;;5069939;28;19920;-81
2021/12/29 05:31:18;;;;;;;;;;;9.20;1.00;;;;;;5085503;28;20041;-81
2021/12/29 05:33:44;;;;;;;;;;;9.20;1.00;;;;;;5077697;28;20027;-81
2021/12/29 05:36:09;;;;;;;;;;;9.20;1.00;;;;;;5069289;28;20391;-81
2021/12/29 05:38:35;;;;;;;;;;;9.10;1.00;;;;;;5060053;28;19909;-81
2021/12/29 05:41:00;;;;;;;;;;;9.10;1.00;;;;;;5072924;28;19913;-81
2021/12/29 05:43:26;;;;;;;;;;;9.10;1.00;;;;;;5075261;28;19958;-81
2021/12/29 05:45:51;;;;;;;;;;;9.10;1.00;;;;;;5076856;28;19908;-81
2021/12/29 05:48:17;;;;;;;;;;;9.10;1.00;;;;;;5069171;28;19947;-81
2021/12/29 05:50:43;;;;;;;;;;;9.10;1.00;;;;;;5076547;28;20287;-81
2021/12/29 05:53:08;;;;;;;;;;;9.10;1.00;;;;;;5069486;28;20129;-81
2021/12/29 05:55:34;;;;;;;;;;;9.10;1.00;;;;;;5076366;28;19909;-81
2021/12/29 05:57:59;;;;;;;;;;;9.10;1.00;;;;;;5069590;28;19923;-81
2021/12/29 06:00:26;;;;;;;;;;;9.10;1.00;;;;;;5069341;28;20021;-82
2021/12/29 06:02:51;;;;;;;;;;;9.10;1.00;;;;;;5077811;28;19919;-81
2021/12/29 06:05:17;;;;;;;;;;;9.10;1.00;;;;;;5078247;28;20179;-81
2021/12/29 06:07:43;;;;;;;;;;;9.10;1.00;;;;;;5070794;28;19919;-81
2021/12/29 06:10:09;;;;;;;;;;;9.10;1.00;;;;;;5076763;28;19917;-81
2021/12/29 06:12:35;;;;;;;;;;;9.10;1.00;;;;;;5067078;28;20036;-82
2021/12/29 06:15:01;;;;;;;;;;;9.10;1.00;;;;;;5064284;28;19926;-81
2021/12/29 06:17:26;;;;;;;;;;;9.10;1.00;;;;;;5071019;28;19948;-81
2021/12/29 06:19:52;;;;;;;;;;;9.10;1.00;;;;;;5073478;28;19927;-81
2021/12/29 06:22:17;;;;;;;;;;;9.10;1.00;;;;;;5069859;28;19922;-81
2021/12/29 06:24:43;;;;;;;;;;;9.10;1.00;;;;;;5076595;28;19912;-81
2021/12/29 06:27:09;;;;;;;;;;;9.10;1.00;;;;;;5076637;28;20042;-81
2021/12/29 06:29:35;;;;;;;;;;;9.10;1.00;;;;;;5077303;28;19913;-81
2021/12/29 06:32:00;;;;;;;;;;;9.10;1.00;;;;;;5076894;28;19958;-81
2021/12/29 06:34:26;;;;;;;;;;;9.10;1.00;;;;;;5083073;28;19920;-81
2021/12/29 06:36:52;;;;;;;;;;;9.10;1.00;;;;;;5082947;28;19919;-80
2021/12/29 06:39:18;;;;;;;;;;;9.20;1.00;;;;;;5076236;28;19916;-81
2021/12/29 06:41:45;;;;;;;;;;;9.20;1.00;;;;;;5076566;28;20288;-82
2021/12/29 06:44:11;;;;;;;;;;;9.20;1.00;;;;;;5078262;28;20003;-81
2021/12/29 06:46:36;;;;;;;;;;;9.20;1.00;;;;;;5076516;28;19947;-81
2021/12/29 06:49:02;;;;;;;;;;;9.20;1.00;;;;;;5076358;28;20000;-81
2021/12/29 06:51:28;;;;;;;;;;;9.20;1.00;;;;;;5076865;28;19913;-82
2021/12/29 06:53:53;;;;;;;;;;;9.20;1.00;;;;;;5076323;28;19923;-81
2021/12/29 06:56:19;;;;;;;;;;;9.20;1.00;;;;;;5070545;28;19923;-81
2021/12/29 06:58:44;;;;;;;;;;;9.20;1.00;;;;;;5072934;28;19913;-81
2021/12/29 07:01:11;;;;;;;;;;;9.20;1.00;;;;;;5073726;28;19959;-83
2021/12/29 07:03:36;;;;;;;;;;;9.20;1.00;;;;;;5070931;28;19913;-81
2021/12/29 07:06:02;;;;;;;;;;;9.20;1.00;;;;;;5074745;28;20159;-81
2021/12/29 07:08:27;;;;;;;;;;;9.20;1.00;;;;;;5069617;28;19920;-80
2021/12/29 07:10:53;;;;;;;;;;;9.20;1.00;;;;;;5060924;28;20019;-82
2021/12/29 07:13:18;;;;;;;;;;;9.30;1.00;;;;;;5067005;28;19920;-81
2021/12/29 07:15:46;;;;;;;;;;;9.40;1.00;;;;;;5068251;28;21534;-81
2021/12/29 07:18:11;;;;;;;;;;;9.40;1.00;;;;;;5071665;28;19912;-81
2021/12/29 07:20:38;;;;;;;;;;;9.50;1.00;;;;;;5071660;28;19912;-81
2021/12/29 07:23:04;;;;;;;;;;;9.50;1.00;;;;;;5071980;28;19913;-81
2021/12/29 07:25:29;;;;;;;;;;;9.50;1.00;;;;;;5082509;28;20324;-82
2021/12/29 07:27:55;;;;;;;;;;;9.50;1.00;;;;;;5071208;28;19996;-81
2021/12/29 07:30:21;;;;;;;;;;;9.50;1.00;;;;;;5067235;28;19913;-81
2021/12/29 07:32:46;;;;;;;;;;;9.50;1.00;;;;;;5070242;28;19916;-81
2021/12/29 07:35:12;;;;;;;;;;;9.50;1.00;;;;;;5069778;28;19934;-81
2021/12/29 07:37:37;;;;;;;;;;;9.50;1.00;;;;;;5067806;28;19919;-81
2021/12/29 07:40:08;;;;;;;;;;;9.50;1.00;;;;;;5073126;28;20039;-81
2021/12/29 07:42:34;;;;;;;;;;;9.50;1.00;;;;;;5069451;28;20006;-82
2021/12/29 07:45:01;;;;;;;;;;;9.50;1.00;;;;;;5070781;28;20004;-81
2021/12/29 07:47:26;;;;;;;;;;;9.50;1.00;;;;;;5066356;28;19913;-81
2021/12/29 07:49:52;;;;;;;;;;;9.50;1.00;;;;;;5084375;28;19928;-82
2021/12/29 07:52:17;;;;;;;;;;;9.50;1.00;;;;;;5070288;28;19912;-81
2021/12/29 07:54:43;;;;;;;;;;;9.50;1.00;;;;;;5075513;28;19912;-82
2021/12/29 07:57:08;;;;;;;;;;;9.50;1.00;;;;;;5085043;28;19920;-82
2021/12/29 07:59:34;;;;;;;;;;;9.50;1.00;;;;;;5085971;28;19916;-81
2021/12/29 08:02:00;;;;;;;;;;;9.50;1.00;;;;;;5078778;28;19912;-82
2021/12/29 08:04:26;;;;;;;;;;;9.50;1.00;;;;;;5093399;28;19958;-82
2021/12/29 08:06:52;;;;;;;;;;;9.50;1.00;;;;;;5077398;28;20675;-82
2021/12/29 08:09:17;;;;;;;;;;;9.50;1.00;;;;;;5074599;28;19987;-82
2021/12/29 08:11:43;;;;;;;;;;;9.60;1.00;;;;;;5077547;28;19934;-82
2021/12/29 08:14:08;;;;;;;;;;;9.60;1.00;;;;;;5069276;28;19927;-82
2021/12/29 08:16:34;;;;;;;;;;;9.70;1.00;;;;;;5067373;28;20266;-82
2021/12/29 08:19:00;;;;;;;;;;;9.70;1.00;;;;;;5078556;28;19920;-83
2021/12/29 08:21:25;;;;;;;;;;;9.70;1.00;;;;;;5087865;28;19912;-82
2021/12/29 08:23:51;;;;;;;;;;;9.70;1.00;;;;;;5092404;28;19939;-82
2021/12/29 08:26:16;;;;;;;;;;;9.80;1.00;;;;;;5079726;28;19912;-82
2021/12/29 08:28:42;;;;;;;;;;;9.80;1.00;;;;;;5079076;28;19920;-81
2021/12/29 08:31:07;;;;;;;;;;;9.80;1.00;;;;;;5077578;28;19920;-81
2021/12/29 08:33:37;;;;;;;;;;;9.80;1.00;;;;;;5077843;28;19971;-82
2021/12/29 08:36:03;;;;;;;;;;;9.90;1.00;;;;;;5088388;28;19916;-82
2021/12/29 08:38:29;;;;;;;;;;;9.90;1.00;;;;;;5080486;28;19959;-82
2021/12/29 08:40:54;;;;;;;;;;;9.90;1.00;;;;;;5079845;28;19917;-82
2021/12/29 08:43:20;;;;;;;;;;;10.00;1.00;;;;;;5083288;28;20006;-82
2021/12/29 08:45:46;;;;;;;;;;;10.10;1.00;;;;;;5078459;28;19913;-82
2021/12/29 08:48:12;;;;;;;;;;;10.10;1.00;;;;;;5075295;28;19961;-82
2021/12/29 08:50:38;;;;;;;;;;;10.20;1.00;;;;;;5079130;28;19912;-82
2021/12/29 08:53:04;;;;;;;;;;;10.30;1.00;;;;;;5078099;28;19959;-82
2021/12/29 08:55:30;;;;;;;;;;;10.30;1.00;;;;;;5079288;28;19919;-82
2021/12/29 08:57:56;;;;;;;;;;;10.40;1.00;;;;;;5074198;28;19920;-82
2021/12/29 09:00:22;;;;;;;;;;;10.40;99.90;;;;;;5072372;28;20361;-82
2021/12/29 09:02:48;;;;;;;;;;;10.40;99.90;;;;;;5070393;28;19913;-82
2021/12/29 09:05:16;;;;;;;;;;;10.40;99.90;;;;;;5078413;28;20331;-82
2021/12/29 09:07:41;;;;;;;;;;;10.40;99.90;;;;;;5078718;28;19908;-82
2021/12/29 09:10:07;;;;;;;;;;;10.40;99.90;;;;;;5075954;28;19935;-82
2021/12/29 09:12:33;;;;;;;;;;;10.40;99.90;;;;;;5074105;28;19956;-82
2021/12/29 09:14:58;;;;;;;;;;;10.40;99.90;;;;;;5074559;28;20058;-82
2021/12/29 09:17:24;;;;;;;;;;;10.40;99.90;;;;;;5080507;28;20357;-82
2021/12/29 09:19:52;;;;;;;;;;;10.40;99.90;;;;;;5084939;28;19936;-82
2021/12/29 09:22:18;;;;;;;;;;;10.40;99.90;;;;;;5075028;28;19909;-82
2021/12/29 09:24:46;;;;;;;;;;;10.40;99.90;;;;;;5065851;28;19936;-82
2021/12/29 09:27:11;;;;;;;;;;;10.40;99.90;;;;;;5068501;28;19958;-83
2021/12/29 09:29:37;;;;;;;;;;;10.40;99.90;;;;;;5071398;28;20368;-81
2021/12/29 09:32:04;;;;;;;;;;;10.50;99.90;;;;;;5077201;28;19951;-82
2021/12/29 09:34:30;;;;;;;;;;;10.50;99.90;;;;;;5074341;28;19986;-82
2021/12/29 09:36:55;;;;;;;;;;;10.50;99.90;;;;;;5078558;28;20352;-81
2021/12/29 09:39:21;;;;;;;;;;;10.50;99.90;;;;;;5072444;28;19921;-82
2021/12/29 09:41:47;;;;;;;;;;;10.50;99.90;;;;;;5068123;28;20381;-81
2021/12/29 09:44:12;;;;;;;;;;;10.50;99.90;;;;;;5074933;28;19920;-82
2021/12/29 09:46:38;;;;;;;;;;;10.50;99.90;;;;;;5068420;28;19964;-81
2021/12/29 09:49:04;;;;;;;;;;;10.50;99.90;;;;;;5074935;28;19912;-82
2021/12/29 09:51:29;;;;;;;;;;;10.50;99.90;;;;;;5073065;28;19921;-81
2021/12/29 09:53:55;;;;;;;;;;;10.60;99.90;;;;;;5074042;28;19912;-82
2021/12/29 09:56:20;;;;;;;;;;;10.70;99.90;;;;;;5072840;28;19934;-82
2021/12/29 09:58:46;;;;;;;;;;;10.90;99.90;;;;;;5064377;28;20011;-82
2021/12/29 10:01:11;;;;;;;;;;;11.00;99.90;;;;;;5077742;28;19971;-81
2021/12/29 10:03:38;;;;;;;;;;;11.10;99.90;;;;;;5073614;28;19912;-82
2021/12/29 10:06:05;;;;;;;;;;;11.20;99.90;;;;;;5073564;28;19912;-81
2021/12/29 10:08:36;;;;;;;;;;;11.20;99.90;;;;;;5069045;28;19973;-82
2021/12/29 10:11:03;;;;;;;;;;;11.40;99.90;;;;;;5068979;28;19912;-81
2021/12/29 10:13:30;;;;;;;;;;;11.70;24.30;;;;;;5074685;28;19963;-81
2021/12/29 10:16:05;;;;;;;;;;;12.00;1.00;;;;;;5078223;28;19992;-82
2021/12/29 10:18:32;;;;;;;;;;;12.20;99.90;;;;;;5077524;28;19999;-82
2021/12/29 10:20:59;;;;;;;;;;;12.70;99.90;;;;;;5062356;28;19916;-82
2021/12/29 10:23:45;;;;;;;;;;;13.20;99.90;;;;;;5073134;28;19917;-83
2021/12/29 10:26:12;;;;;;;;;;;13.50;1.00;;;;;;5074082;28;20008;-82
2021/12/29 10:28:40;;;;;;;;;;;13.80;1.00;;;;;;5079068;28;19975;-82
2021/12/29 10:31:11;;;;;;;;;;;13.90;1.00;;;;;;5076790;28;19912;-82
2021/12/29 10:36:26;;;;;;;;;;;14.00;99.90;;;;;;5050398;28;20007;-78
2021/12/29 10:39:02;;;;;;;;;;;13.90;99.90;;;;;;5052741;28;19920;-78
2021/12/29 10:41:28;;;;;;;;;;;13.90;99.90;;;;;;5056806;28;20423;-80
2021/12/29 10:44:04;;;;;;;;;;;13.90;30.60;;;;;;5055658;28;19943;-80
2021/12/29 10:46:33;;;;;;;;;;;13.80;1.00;;;;;;5048754;28;19912;-79
2021/12/29 10:49:00;;;;;;;;;;;13.90;1.00;;;;;;5054507;28;20369;-81
2021/12/29 10:51:27;;;;;;;;;;;13.90;1.00;;;;;;5055262;28;19920;-80
2021/12/29 10:53:53;;;;;;;;;;;13.90;1.00;;;;;;5054647;28;19913;-79
2021/12/29 10:56:19;;;;;;;;;;;13.90;99.90;;;;;;5052165;28;19920;-80
2021/12/29 10:58:45;;;;;;;;;;;14.00;1.00;;;;;;5028863;28;19913;-80
2021/12/29 11:01:12;;;;;;;;;;;14.00;1.00;;;;;;5050817;28;19919;-77
2021/12/29 11:03:48;;;;;;;;;;;14.00;99.90;;;;;;5048710;28;19971;-80
2021/12/29 11:06:15;;;;;;;;;;;13.90;99.90;;;;;;5045035;28;19963;-80
2021/12/29 11:08:54;;;;;;;;;;;13.80;99.90;;;;;;5054449;28;19952;-80
2021/12/29 11:11:24;;;;;;;;;;;13.80;99.90;;;;;;5034354;28;20284;-80
2021/12/29 11:13:49;;;;;;;;;;;13.70;99.90;;;;;;5037031;28;19927;-80
2021/12/29 11:16:17;;;;;;;;;;;13.60;99.90;;;;;;5034511;28;20000;-79
2021/12/29 11:18:47;;;;;;;;;;;13.50;99.90;;;;;;5054134;28;19913;-79
2021/12/29 11:21:15;;;;;;;;;;;13.40;99.90;;;;;;5042152;28;19920;-80
2021/12/29 11:23:41;;;;;;;;;;;13.30;99.90;;;;;;5036152;28;19925;-80
2021/12/29 11:26:11;;;;;;;;;;;13.20;99.90;;;;;;5030535;28;20269;-80
2021/12/29 11:28:37;;;;;;;;;;;13.20;99.90;;;;;;5070223;28;19924;-80
2021/12/29 11:31:04;;;;;;;;;;;13.10;99.90;;;;;;5038449;28;19913;-80
2021/12/29 11:33:31;;;;;;;;;;;13.20;99.90;;;;;;5052536;28;19919;-80
2021/12/29 11:35:56;;;;;;;;;;;13.20;99.90;;;;;;5052259;28;19924;-80
2021/12/29 11:38:23;;;;;;;;;;;13.00;99.90;;;;;;5041422;28;19936;-80
2021/12/29 11:40:50;;;;;;;;;;;12.90;99.90;;;;;;5052271;28;19967;-80
2021/12/29 11:43:16;;;;;;;;;;;12.70;99.90;;;;;;5037351;28;20452;-80
2021/12/29 11:45:43;;;;;;;;;;;12.50;99.90;;;;;;5038115;28;19913;-80
2021/12/29 11:48:10;;;;;;;;;;;12.40;1.00;;;;;;5039226;28;19909;-80
2021/12/29 11:50:38;;;;;;;;;;;12.30;1.00;;;;;;5048648;28;19962;-80
2021/12/29 11:53:23;;;;;;;;;;;12.20;1.00;;;;;;5046595;28;19928;-80
2021/12/29 11:55:50;;;;;;;;;;;12.10;1.00;;;;;;5052803;28;19909;-80
2021/12/29 11:58:25;;;;;;;;;;;12.00;1.00;;;;;;5046341;28;20071;-80
2021/12/29 12:01:07;;;;;;;;;;;12.00;1.00;;;;;;5033817;28;19997;-80
2021/12/29 12:03:53;;;;;;;;;;;11.90;1.00;;;;;;5047414;28;19920;-80
2021/12/29 12:06:19;;;;;;;;;;;11.90;1.00;;;;;;5053771;28;20262;-80
2021/12/29 12:08:45;;;;;;;;;;;11.80;1.00;;;;;;5050227;28;19944;-80
2021/12/29 12:11:23;;;;;;;;;;;11.80;25.10;;;;;;5054027;28;19912;-79
2021/12/29 12:13:48;;;;;;;;;;;11.90;99.90;;;;;;5045846;28;20292;-80
2021/12/29 12:16:14;;;;;;;;;;;11.90;99.90;;;;;;5049960;28;19913;-80
2021/12/29 12:18:51;;;;;;;;;;;11.80;99.90;;;;;;5053136;28;19951;-79
2021/12/29 12:21:20;;;;;;;;;;;11.80;99.90;;;;;;5042899;28;20429;-79
2021/12/29 12:23:46;;;;;;;;;;;11.80;99.90;;;;;;5032961;28;20324;-80
2021/12/29 12:26:11;;;;;;;;;;;11.80;99.90;;;;;;5043653;28;19913;-79
2021/12/29 12:28:47;;;;;;;;;;;11.80;99.90;;;;;;5032680;28;19948;-80
2021/12/29 12:31:26;;;;;;;;;;;11.80;99.90;;;;;;5050569;28;20004;-79
2021/12/29 12:33:52;;;;;;;;;;;11.70;99.90;;;;;;5045159;28;20380;-79
2021/12/29 12:36:18;;;;;;;;;;;11.70;99.90;;;;;;5053439;28;19917;-79
2021/12/29 12:38:44;;;;;;;;;;;11.70;1.00;;;;;;5049316;28;20288;-80
2021/12/29 12:41:09;;;;;;;;;;;11.70;99.90;;;;;;5048648;28;19944;-79
2021/12/29 12:43:36;;;;;;;;;;;11.70;1.00;;;;;;5056008;28;19912;-79
2021/12/29 12:46:02;;;;;;;;;;;11.70;1.00;;;;;;5068286;28;20030;-79
2021/12/29 12:48:29;;;;;;;;;;;11.70;1.00;;;;;;5056828;28;19993;-79
2021/12/29 12:50:56;;;;;;;;;;;11.70;99.90;;;;;;5047548;28;19913;-78
2021/12/29 12:53:32;;;;;;;;;;;11.60;1.00;;;;;;5049376;28;20266;-79
2021/12/29 12:55:58;;;;;;;;;;;11.60;1.00;;;;;;5047244;28;20305;-79
2021/12/29 12:58:25;;;;;;;;;;;11.50;99.90;;;;;;5056291;28;19920;-79
2021/12/29 13:00:55;;;;;;;;;;;11.50;1.00;;;;;;5062737;28;19915;-79
2021/12/29 13:03:22;;;;;;;;;;;11.50;1.00;;;;;;5055906;28;19958;-80
2021/12/29 13:05:51;;;;;;;;;;;11.50;1.00;;;;;;5053515;28;20312;-79
2021/12/29 13:08:22;;;;;;;;;;;11.40;99.90;;;;;;5045115;28;19917;-80
2021/12/29 13:10:55;;;;;;;;;;;11.40;99.90;;;;;;5032842;28;19913;-79
2021/12/29 13:13:23;;;;;;;;;;;11.40;1.00;;;;;;5047668;28;19909;-80
2021/12/29 13:15:57;;;;;;;;;;;11.40;86.30;;;;;;5063237;28;20400;-79
2021/12/29 13:18:23;;;;;;;;;;;11.40;99.90;;;;;;5049519;28;19991;-80
2021/12/29 13:20:49;;;;;;;;;;;11.30;1.00;;;;;;5038371;28;19955;-80
2021/12/29 13:23:17;;;;;;;;;;;11.30;1.00;;;;;;5044861;28;19924;-79
2021/12/29 13:25:43;;;;;;;;;;;11.40;1.00;;;;;;5062719;28;19921;-80
2021/12/29 13:28:12;;;;;;;;;;;11.30;1.00;;;;;;5054853;28;19913;-78
2021/12/29 13:30:44;;;;;;;;;;;11.30;1.00;;;;;;5049761;28;19948;-79
2021/12/29 13:33:10;;;;;;;;;;;11.30;1.00;;;;;;5052592;28;19913;-79
2021/12/29 13:35:37;;;;;;;;;;;11.30;17.60;;;;;;5047704;28;19939;-79
2021/12/29 13:38:04;;;;;;;;;;;11.30;1.00;;;;;;5055234;28;20343;-79
2021/12/29 13:40:30;;;;;;;;;;;11.30;1.00;;;;;;5035590;28;20008;-79
2021/12/29 13:42:56;;;;;;;;;;;11.30;1.00;;;;;;5051206;28;20357;-79
2021/12/29 13:45:23;;;;;;;;;;;11.30;38.80;;;;;;5038856;28;19952;-79
2021/12/29 13:47:48;;;;;;;;;;;11.30;78.00;;;;;;5030506;28;19967;-78
2021/12/29 13:50:15;;;;;;;;;;;11.20;99.90;;;;;;5055011;28;19913;-79
2021/12/29 13:52:41;;;;;;;;;;;11.10;1.00;;;;;;5071540;28;19964;-79
2021/12/29 13:55:07;;;;;;;;;;;11.10;99.90;;;;;;5053350;28;19917;-79
2021/12/29 13:57:33;;;;;;;;;;;11.00;1.00;;;;;;5054706;28;19974;-79
2021/12/29 13:59:59;;;;;;;;;;;11.00;1.00;;;;;;5031640;28;20288;-79
2021/12/29 14:02:25;;;;;;;;;;;10.90;94.40;;;;;;5047023;28;19955;-79
2021/12/29 14:04:52;;;;;;;;;;;10.90;99.90;;;;;;5053277;28;19998;-79
2021/12/29 14:07:17;;;;;;;;;;;10.80;1.00;;;;;;5054865;28;20408;-80
2021/12/29 14:09:43;;;;;;;;;;;10.70;1.00;;;;;;5044663;28;19975;-79
2021/12/29 14:12:09;;;;;;;;;;;10.60;1.00;;;;;;5034733;28;19960;-80
2021/12/29 14:14:34;;;;;;;;;;;10.60;1.00;;;;;;5056457;28;19917;-78
2021/12/29 14:17:00;;;;;;;;;;;10.50;1.00;;;;;;5053571;28;19913;-79
2021/12/29 14:19:26;;;;;;;;;;;10.50;1.00;;;;;;5056374;28;19928;-79
2021/12/29 14:21:54;;;;;;;;;;;10.40;1.00;;;;;;5035785;28;19921;-79
2021/12/29 14:24:21;;;;;;;;;;;10.40;1.00;;;;;;5046517;28;19917;-78
2021/12/29 14:26:48;;;;;;;;;;;10.40;1.00;;;;;;5061414;28;19917;-79
2021/12/29 14:29:16;;;;;;;;;;;10.40;1.00;;;;;;5031582;28;19971;-78
2021/12/29 14:31:52;;;;;;;;;;;10.40;1.00;;;;;;5047584;28;19913;-79
2021/12/29 14:34:19;;;;;;;;;;;10.30;1.00;;;;;;5027526;28;19913;-79
2021/12/29 14:36:49;;;;;;;;;;;10.30;1.00;;;;;;5034392;28;19912;-79
2021/12/29 14:39:17;;;;;;;;;;;10.30;1.00;;;;;;5057193;28;19920;-79
2021/12/29 14:41:43;;;;;;;;;;;10.30;1.00;;;;;;5042525;28;19913;-79
2021/12/29 14:44:13;;;;;;;;;;;10.20;1.00;;;;;;5054835;28;20482;-79